Country
Station

 

Weather  for  Wick  -  United Kingdom    United Kingdom

  
4 °C (39 °F)
    
 
 

Current METAR for Wick is :

EGPC 221420Z 26006KT 9999 FEW012 04/03 Q0983

 

This is a report for Wick - United Kingdom.
 
The report was made 24 minutes ago, at 14:20 UTC .
The wind was blowing at a speed of 3.1 meters per second (6.9 miles per hour) from west (260°).
 
The temperature was 4 °C (39 °F), with a dew-point at 3 °C (37 °F).
The temperature felt like 1 °C (34 °F).
 
The atmospheric pressure was 983 hPa (29.03 inHg).
The relative humidity was 93.2%.
 
There were a few clouds at a height of 366 meters (1200 feet).
 
The overall visibility was greater than 10 kilometers (6.2 miles).
 

 
 
 
 

Country :   A   B   C   D   E   F   G   H   I   J   K   L   M   N   O   P   Q   R   S   T   U   V   W   Y   Z

 

Site Info  |  Disclaimer  |  Credits  |  Privacy
Contact us  |  Add to favorites
© 2013-2017 METARs - All rights reserved